Time;durP1;ratioP1;P1;durP2;ratioP2;P2;SDS_P1;SDS_P2;PMS_P1;PMS_P2;Temp;Humidity;BMP_temperature;BMP_pressure;BME280_temperature;BME280_humidity;BME280_pressure;Samples;Min_cycle;Max_cycle;Signal;HPM_P1;HPM_P2
2024/01/31 00:03:23;;;;;;;0.52;0.52;;;;;;;7.32;72.09;102425.25;15811262;28;20530;-52
2024/01/31 00:10:59;;;;;;;0.45;0.45;;;;;;;7.35;72.43;102422.28;15772083;28;20286;-49
2024/01/31 00:18:35;;;;;;;0.45;0.45;;;;;;;7.44;72.16;102415.22;15808795;28;20043;-49
2024/01/31 00:26:10;;;;;;;0.20;0.20;;;;;;;7.95;70.46;102414.63;15806864;28;20055;-49
2024/01/31 00:33:47;;;;;;;0.00;0.00;;;;;;;7.98;70.92;102422.34;15768708;28;20040;-49
2024/01/31 00:41:22;;;;;;;0.17;0.17;;;;;;;7.86;70.49;102416.34;15795574;28;20044;-48
2024/01/31 00:49:05;;;;;;;;;;;;;;;;;;;;;
2024/01/31 00:56:40;;;;;;;0.08;0.08;;;;;;;7.83;70.19;102415.81;15799233;28;20044;-50
2024/01/31 01:04:14;;;;;;;5.18;1.20;;;;;;;8.34;68.61;102415.13;15790903;28;20404;-48
2024/01/31 01:11:55;;;;;;;0.00;0.00;;;;;;;8.14;68.27;102406.44;15802207;28;20046;-51
2024/01/31 01:19:29;;;;;;;0.15;0.13;;;;;;;8.36;67.30;102412.31;15788032;28;20040;-52
2024/01/31 01:27:04;;;;;;;0.10;0.10;;;;;;;8.24;66.77;102405.53;15802301;28;20071;-54
2024/01/31 01:34:43;;;;;;;0.20;0.20;;;;;;;8.58;65.34;102411.00;15796571;28;20044;-54
2024/01/31 01:42:17;;;;;;;0.00;0.00;;;;;;;8.35;65.91;102405.28;15769246;28;20046;-53
2024/01/31 01:49:51;;;;;;;0.30;0.30;;;;;;;8.56;64.91;102396.94;15762913;28;20058;-51
2024/01/31 01:57:26;;;;;;;0.05;0.05;;;;;;;8.54;64.90;102402.47;15784367;28;20048;-51
2024/01/31 02:05:00;;;;;;;0.00;0.00;;;;;;;8.55;65.18;102419.38;15766549;28;20036;-50
2024/01/31 02:12:37;;;;;;;0.00;0.00;;;;;;;8.45;66.85;102426.66;15786499;28;20044;-53
2024/01/31 02:20:15;;;;;;;0.55;0.30;;;;;;;8.16;70.49;102436.56;15769929;28;20044;-52
2024/01/31 02:27:50;;;;;;;0.00;0.00;;;;;;;7.91;71.80;102424.75;15794526;28;20056;-52
2024/01/31 02:35:24;;;;;;;0.10;0.10;;;;;;;8.27;70.75;102429.28;15783335;28;20357;-50
2024/01/31 02:42:59;;;;;;;0.80;0.80;;;;;;;7.89;71.70;102425.94;15783910;28;20044;-53
2024/01/31 02:50:33;;;;;;;0.00;0.00;;;;;;;7.63;71.38;102396.41;15766044;28;20048;-53
2024/01/31 02:58:08;;;;;;;0.00;0.00;;;;;;;7.93;70.62;102427.31;15759194;28;20056;-51
2024/01/31 03:05:42;;;;;;;0.30;0.30;;;;;;;7.73;71.16;102439.94;15776433;28;20044;-50
2024/01/31 03:13:18;;;;;;;0.00;0.00;;;;;;;7.77;71.14;102435.13;15790827;28;20541;-48
2024/01/31 03:20:54;;;;;;;0.32;0.32;;;;;;;7.79;70.69;102444.69;15795477;28;20044;-53
2024/01/31 03:28:30;;;;;;;0.03;0.03;;;;;;;7.75;71.35;102466.53;15774923;28;20052;-53
2024/01/31 03:36:05;;;;;;;0.00;0.00;;;;;;;7.56;72.31;102462.97;15754770;28;20044;-51
2024/01/31 03:43:42;;;;;;;0.00;0.00;;;;;;;7.61;73.83;102482.06;15755762;28;20044;-54
2024/01/31 03:51:19;;;;;;;0.00;0.00;;;;;;;7.14;75.87;102492.78;15737408;28;20028;-52
2024/01/31 03:58:54;;;;;;;0.00;0.00;;;;;;;7.04;76.03;102504.47;15789575;28;20066;-54
2024/01/31 04:06:30;;;;;;;0.00;0.00;;;;;;;7.13;74.71;102509.81;15806263;28;20094;-53
2024/01/31 04:14:05;;;;;;;0.00;0.00;;;;;;;6.82;74.24;102511.81;15791183;28;20089;-50
2024/01/31 04:21:49;;;;;;;0.00;0.00;;;;;;;6.87;73.09;102508.72;15784895;28;20040;-51
2024/01/31 04:29:28;;;;;;;0.00;0.00;;;;;;;6.83;73.27;102515.31;15789053;28;20046;-52
2024/01/31 04:37:02;;;;;;;0.00;0.00;;;;;;;6.97;72.86;102527.38;15798317;28;20067;-54
2024/01/31 04:44:46;;;;;;;0.05;0.05;;;;;;;6.88;72.67;102526.41;15801683;28;20040;-52
2024/01/31 04:52:22;;;;;;;0.00;0.00;;;;;;;7.11;71.54;102542.97;15756366;28;20044;-53
2024/01/31 04:59:59;;;;;;;0.00;0.00;;;;;;;6.63;73.31;102539.34;15767878;28;20040;-51
2024/01/31 05:07:32;;;;;;;0.00;0.00;;;;;;;6.64;73.37;102537.53;15798950;28;20036;-55
2024/01/31 05:15:09;;;;;;;0.00;0.00;;;;;;;6.59;73.07;102539.78;15791444;28;20032;-54
2024/01/31 05:22:42;;;;;;;0.00;0.00;;;;;;;6.64;72.44;102542.84;15792354;28;20385;-51
2024/01/31 05:30:17;;;;;;;0.00;0.00;;;;;;;6.33;71.95;102550.97;15795785;28;20040;-51
2024/01/31 05:37:51;;;;;;;0.00;0.00;;;;;;;6.31;71.26;102560.09;15768550;28;20505;-52
2024/01/31 05:45:27;;;;;;;0.00;0.00;;;;;;;5.94;71.92;102565.19;15761427;28;20039;-52
2024/01/31 05:53:01;;;;;;;0.00;0.00;;;;;;;5.57;73.21;102574.53;15785473;28;20044;-55
2024/01/31 06:00:37;;;;;;;0.00;0.00;;;;;;;5.84;71.68;102579.28;15751652;28;20044;-53
2024/01/31 06:08:11;;;;;;;0.00;0.00;;;;;;;5.61;72.31;102591.94;15797220;28;20097;-51
2024/01/31 06:15:46;;;;;;;0.00;0.00;;;;;;;5.78;71.44;102611.81;15771969;28;20043;-52
2024/01/31 06:23:20;;;;;;;0.00;0.00;;;;;;;5.76;71.33;102620.91;15781772;28;20275;-51
2024/01/31 06:31:03;;;;;;;0.00;0.00;;;;;;;5.69;71.20;102593.06;15784811;28;20051;-51
2024/01/31 06:38:37;;;;;;;0.00;0.00;;;;;;;6.16;70.81;102639.63;15799798;28;20044;-52
2024/01/31 06:46:14;;;;;;;0.00;0.00;;;;;;;6.09;71.38;102652.63;15774086;28;20216;-51
2024/01/31 06:53:47;;;;;;;0.00;0.00;;;;;;;6.01;72.44;102657.78;15783349;28;20040;-52
2024/01/31 07:01:22;;;;;;;0.00;0.00;;;;;;;5.66;74.71;102671.47;15748461;28;20373;-52
2024/01/31 07:08:56;;;;;;;0.00;0.00;;;;;;;5.88;74.09;102673.16;15774687;28;20097;-52
2024/01/31 07:16:31;;;;;;;0.00;0.00;;;;;;;5.63;75.16;102667.22;15766060;28;20037;-55
2024/01/31 07:24:05;;;;;;;0.00;0.00;;;;;;;5.83;74.28;102680.69;15817553;22;20055;-47
2024/01/31 07:31:40;;;;;;;0.00;0.00;;;;;;;5.82;74.65;102698.47;15910825;27;20043;-47
2024/01/31 07:39:14;;;;;;;0.00;0.00;;;;;;;5.97;74.89;102704.38;15924794;27;20111;-48
2024/01/31 07:46:49;;;;;;;1.27;0.80;;;;;;;5.81;75.27;102719.94;15928547;27;20130;-48
2024/01/31 07:54:26;;;;;;;0.00;0.00;;;;;;;5.96;74.95;102717.81;15929781;27;20046;-45
2024/01/31 08:02:01;;;;;;;0.00;0.00;;;;;;;5.73;74.52;102719.72;15935574;27;20099;-48
2024/01/31 08:09:39;;;;;;;0.95;0.90;;;;;;;5.68;72.39;102724.59;15895693;27;20043;-49
2024/01/31 08:17:14;;;;;;;0.20;0.20;;;;;;;5.79;71.30;102738.72;15932013;27;20043;-45
2024/01/31 08:24:48;;;;;;;0.00;0.00;;;;;;;5.79;72.11;102744.06;15932226;27;20039;-50
2024/01/31 08:32:24;;;;;;;0.00;0.00;;;;;;;6.23;72.05;102739.44;15919980;27;20099;-51
2024/01/31 08:39:57;;;;;;;0.00;0.00;;;;;;;5.94;72.70;102744.59;15918494;27;20039;-47
2024/01/31 08:47:32;;;;;;;0.00;0.00;;;;;;;6.33;71.55;102764.31;15920877;27;20043;-47
2024/01/31 08:55:08;;;;;;;0.10;0.10;;;;;;;6.13;71.07;102776.72;15921703;27;20043;-46
2024/01/31 09:02:43;;;;;;;0.00;0.00;;;;;;;5.31;74.49;102795.09;15886415;27;20051;-48
2024/01/31 09:10:17;;;;;;;0.00;0.00;;;;;;;5.07;75.33;102787.28;15913226;27;20039;-46
2024/01/31 09:17:53;;;;;;;0.10;0.10;;;;;;;5.17;75.04;102784.72;15919283;27;20039;-44
2024/01/31 09:25:26;;;;;;;0.00;0.00;;;;;;;5.21;74.74;102780.84;15896343;27;20411;-46
2024/01/31 09:33:02;;;;;;;0.00;0.00;;;;;;;5.36;73.52;102792.03;15933796;27;20037;-47
2024/01/31 09:40:37;;;;;;;0.03;0.03;;;;;;;5.62;72.71;102785.41;15911988;27;20079;-46
2024/01/31 09:48:14;;;;;;;3.20;0.65;;;;;;;5.74;72.83;102794.22;15927607;27;20053;-48
2024/01/31 09:55:48;;;;;;;0.00;0.00;;;;;;;5.01;74.63;102797.59;15899444;27;20138;-50
2024/01/31 10:03:24;;;;;;;0.00;0.00;;;;;;;5.14;75.21;102778.81;15882365;27;20035;-52
2024/01/31 10:10:58;;;;;;;0.00;0.00;;;;;;;5.24;74.59;102785.06;15903088;27;20064;-51
2024/01/31 10:18:34;;;;;;;0.30;0.30;;;;;;;5.54;74.65;102757.72;15886414;27;20419;-50
2024/01/31 10:26:10;;;;;;;0.00;0.00;;;;;;;5.18;73.96;102770.47;15899580;27;20041;-47
2024/01/31 10:33:50;;;;;;;0.00;0.00;;;;;;;5.34;72.07;102762.03;15890386;27;20088;-47
2024/01/31 10:41:24;;;;;;;0.00;0.00;;;;;;;4.80;72.76;102774.41;15897273;27;20138;-47
2024/01/31 10:48:59;;;;;;;0.00;0.00;;;;;;;5.59;71.64;102791.00;15911866;27;20052;-46
2024/01/31 10:56:35;;;;;;;14.85;1.00;;;;;;;5.46;71.36;102785.00;15924429;27;20064;-45
2024/01/31 11:04:10;;;;;;;0.00;0.00;;;;;;;6.00;68.77;102793.88;15870743;27;20552;-45
2024/01/31 11:11:44;;;;;;;7.47;2.05;;;;;;;6.04;67.97;102756.16;15922576;27;20051;-50
2024/01/31 11:19:21;;;;;;;0.00;0.00;;;;;;;6.52;63.01;102747.56;15925041;27;20448;-45
2024/01/31 11:26:55;;;;;;;0.00;0.00;;;;;;;6.08;64.08;102736.28;15925238;27;20380;-47
2024/01/31 11:34:30;;;;;;;0.00;0.00;;;;;;;5.88;61.41;102745.09;15918873;28;20050;-44
2024/01/31 11:42:05;;;;;;;0.00;0.00;;;;;;;6.35;59.24;102733.03;15916116;27;20047;-44
2024/01/31 11:49:40;;;;;;;0.35;0.35;;;;;;;6.00;58.33;102719.25;15918312;28;20039;-45
2024/01/31 11:57:15;;;;;;;0.00;0.00;;;;;;;6.33;57.97;102702.13;15924774;27;20132;-48
2024/01/31 12:04:56;;;;;;;0.00;0.00;;;;;;;6.12;58.77;102687.03;15903808;27;20126;-47
2024/01/31 12:12:33;;;;;;;0.30;0.30;;;;;;;5.99;59.91;102664.25;15894306;27;20059;-47
2024/01/31 12:20:11;;;;;;;0.00;0.00;;;;;;;6.44;58.68;102645.19;15932707;27;20050;-45
2024/01/31 12:27:44;;;;;;;0.00;0.00;;;;;;;6.34;59.69;102635.34;15918128;27;20138;-45
2024/01/31 12:35:19;;;;;;;1.65;1.05;;;;;;;5.85;61.21;102625.44;15928369;27;20039;-51
2024/01/31 12:42:54;;;;;;;0.00;0.00;;;;;;;6.02;61.26;102614.19;15916406;27;20081;-46
2024/01/31 12:50:32;;;;;;;0.00;0.00;;;;;;;6.11;62.65;102629.38;15923662;27;20671;-47
2024/01/31 12:58:06;;;;;;;0.00;0.00;;;;;;;5.82;64.86;102625.69;15922548;27;20120;-45
2024/01/31 13:05:42;;;;;;;0.00;0.00;;;;;;;5.84;66.36;102621.09;15924744;27;20080;-49
2024/01/31 13:13:16;;;;;;;0.00;0.00;;;;;;;5.24;66.92;102606.69;15929172;27;20114;-45
2024/01/31 13:20:52;;;;;;;0.00;0.00;;;;;;;5.09;67.93;102609.69;15896974;27;20499;-45
2024/01/31 13:28:25;;;;;;;0.00;0.00;;;;;;;5.69;64.43;102595.75;15922598;27;20031;-50
2024/01/31 13:36:00;;;;;;;0.00;0.00;;;;;;;5.52;64.44;102582.06;15930254;27;20045;-45
2024/01/31 13:43:35;;;;;;;0.00;0.00;;;;;;;5.55;63.87;102599.63;15931681;27;20150;-49
2024/01/31 13:51:12;;;;;;;0.00;0.00;;;;;;;5.65;63.63;102600.50;15934149;27;20047;-49
2024/01/31 13:58:46;;;;;;;0.00;0.00;;;;;;;5.56;64.70;102599.47;15929987;27;20045;-51
2024/01/31 14:06:24;;;;;;;0.00;0.00;;;;;;;5.15;66.64;102600.31;15931534;27;20046;-48
2024/01/31 14:13:57;;;;;;;0.00;0.00;;;;;;;5.66;66.35;102572.88;15930218;27;20131;-50
2024/01/31 14:21:32;;;;;;;;;;;;;;;5.17;67.49;102573.56;15930670;27;20122;-51
2024/01/31 14:29:06;;;;;;;0.00;0.00;;;;;;;5.49;65.83;102547.69;15929029;27;20396;-47
2024/01/31 14:36:46;;;;;;;0.00;0.00;;;;;;;5.40;65.23;102526.34;15927712;27;20046;-45
2024/01/31 14:44:26;;;;;;;0.00;0.00;;;;;;;5.57;64.19;102550.56;15929629;27;20054;-45
2024/01/31 14:52:02;;;;;;;0.00;0.00;;;;;;;4.99;65.72;102550.22;15930811;27;20039;-46
2024/01/31 14:59:38;;;;;;;0.43;0.43;;;;;;;5.03;65.19;102534.81;15909697;27;20051;-50
2024/01/31 15:07:13;;;;;;;0.00;0.00;;;;;;;5.75;63.10;102504.63;15905105;27;20534;-45
2024/01/31 15:14:48;;;;;;;0.05;0.05;;;;;;;5.03;65.29;102508.19;15925739;27;20445;-51
2024/01/31 15:22:26;;;;;;;0.00;0.00;;;;;;;5.06;64.07;102484.84;15927068;27;20487;-46
2024/01/31 15:29:59;;;;;;;0.20;0.20;;;;;;;4.99;64.31;102482.81;15926187;28;20062;-49
2024/01/31 15:37:34;;;;;;;0.00;0.00;;;;;;;4.71;64.85;102500.28;15908599;28;20042;-47
2024/01/31 15:45:15;;;;;;;0.00;0.00;;;;;;;4.76;64.52;102488.28;15912341;27;20066;-44
2024/01/31 15:52:52;;;;;;;0.00;0.00;;;;;;;5.00;63.84;102484.53;15932361;27;20043;-46
2024/01/31 16:00:25;;;;;;;0.00;0.00;;;;;;;4.89;63.88;102472.13;15937330;27;20039;-44
2024/01/31 16:08:00;;;;;;;0.28;0.28;;;;;;;4.97;63.55;102463.50;15935425;27;20103;-48
2024/01/31 16:15:34;;;;;;;0.10;0.10;;;;;;;4.89;64.25;102461.47;15936876;27;20043;-50
2024/01/31 16:23:10;;;;;;;0.00;0.00;;;;;;;5.10;63.70;102442.84;15918209;27;20051;-46
2024/01/31 16:30:53;;;;;;;0.10;0.10;;;;;;;4.81;64.06;102424.91;15935134;27;20043;-52
2024/01/31 16:38:30;;;;;;;0.13;0.10;;;;;;;4.66;65.36;102410.22;15934492;27;20062;-50
2024/01/31 16:46:04;;;;;;;11.35;0.90;;;;;;;5.24;63.82;102415.03;15921897;27;20113;-47
2024/01/31 16:53:41;;;;;;;0.00;0.00;;;;;;;5.13;64.04;102413.31;15934329;27;20043;-49
2024/01/31 17:01:15;;;;;;;0.20;0.20;;;;;;;5.20;63.95;102394.97;15939227;27;20122;-47
2024/01/31 17:08:52;;;;;;;0.00;0.00;;;;;;;5.13;63.81;102392.00;15937723;27;20031;-47
2024/01/31 17:16:25;;;;;;;0.20;0.20;;;;;;;5.29;63.67;102380.84;15901532;27;20066;-47
2024/01/31 17:24:00;;;;;;;0.10;0.10;;;;;;;4.91;64.33;102382.38;15933559;27;20039;-45
2024/01/31 17:31:34;;;;;;;0.00;0.00;;;;;;;4.95;64.51;102375.81;15918885;27;20442;-45
2024/01/31 17:39:09;;;;;;;0.00;0.00;;;;;;;4.88;64.45;102366.66;15933164;27;20043;-45
2024/01/31 17:46:44;;;;;;;0.00;0.00;;;;;;;5.19;63.37;102342.72;15907742;27;20104;-48
2024/01/31 17:54:18;;;;;;;;;;;;;;;5.02;64.09;102326.41;15931410;27;20047;-46
2024/01/31 18:01:58;;;;;;;0.00;0.00;;;;;;;4.93;64.04;102315.72;15911389;27;20014;-46
2024/01/31 18:09:33;;;;;;;10.57;0.63;;;;;;;5.24;63.40;102298.72;15929666;27;20070;-46
2024/01/31 18:17:07;;;;;;;0.00;0.00;;;;;;;5.27;63.67;102302.91;15904014;27;20053;-49
2024/01/31 18:24:45;;;;;;;0.00;0.00;;;;;;;4.90;64.77;102294.72;15928770;27;20047;-44
2024/01/31 18:32:24;;;;;;;0.08;0.08;;;;;;;5.19;63.69;102276.16;15931173;27;20050;-49
2024/01/31 18:39:59;;;;;;;0.00;0.00;;;;;;;5.61;62.84;102272.28;15908728;27;20058;-46
2024/01/31 18:47:35;;;;;;;0.00;0.00;;;;;;;5.45;62.98;102257.81;15913323;27;20083;-45
2024/01/31 18:55:10;;;;;;;0.00;0.00;;;;;;;5.29;63.26;102248.56;15925451;27;20073;-50
2024/01/31 19:02:46;;;;;;;0.38;0.32;;;;;;;5.50;62.54;102236.94;15920571;27;20047;-48
2024/01/31 19:10:21;;;;;;;0.00;0.00;;;;;;;5.79;61.80;102224.47;15905443;27;20027;-53
2024/01/31 19:17:55;;;;;;;0.00;0.00;;;;;;;5.65;62.50;102186.78;15902809;28;20449;-48
2024/01/31 19:25:30;;;;;;;0.20;0.20;;;;;;;5.36;63.22;102163.66;15873138;22;20048;-52
2024/01/31 19:33:05;;;;;;;2.17;0.45;;;;;;;5.19;64.07;102124.44;15810791;28;20651;-53
2024/01/31 19:40:40;;;;;;;0.10;0.10;;;;;;;5.26;63.63;102112.22;15810988;28;20437;-51
2024/01/31 19:48:14;;;;;;;0.00;0.00;;;;;;;5.59;62.91;102084.28;15816714;28;20048;-54
2024/01/31 19:55:49;;;;;;;0.03;0.03;;;;;;;5.73;62.58;102085.63;15809797;28;20044;-55
2024/01/31 20:03:23;;;;;;;0.00;0.00;;;;;;;5.73;62.76;102065.16;15791454;28;20511;-50
2024/01/31 20:10:58;;;;;;;0.00;0.00;;;;;;;5.94;62.34;102035.66;15801401;28;20466;-53
2024/01/31 20:18:32;;;;;;;0.08;0.08;;;;;;;5.52;64.00;102033.44;15802872;28;20465;-52
2024/01/31 20:26:08;;;;;;;0.00;0.00;;;;;;;5.59;63.94;102007.03;15783995;28;20044;-53
2024/01/31 20:33:41;;;;;;;0.00;0.00;;;;;;;5.62;63.80;101988.13;15789824;28;20075;-52
2024/01/31 20:41:17;;;;;;;0.00;0.00;;;;;;;5.58;64.79;101968.91;15805632;28;20097;-51
2024/01/31 20:48:51;;;;;;;0.00;0.00;;;;;;;5.55;64.87;101949.75;15805283;28;20480;-51
2024/01/31 20:56:26;;;;;;;0.38;0.38;;;;;;;5.60;65.04;101899.53;15788331;28;20486;-51
2024/01/31 21:04:07;;;;;;;0.57;0.57;;;;;;;5.48;65.73;101901.56;15808834;28;20044;-50
2024/01/31 21:11:42;;;;;;;0.47;0.47;;;;;;;5.38;66.03;101874.16;15805081;28;20075;-54
2024/01/31 21:19:16;;;;;;;0.00;0.00;;;;;;;5.83;64.99;101854.66;15803628;28;20040;-54
2024/01/31 21:26:50;;;;;;;;;;;;;;;5.60;65.05;101823.16;15786366;28;20044;-52
2024/01/31 21:34:24;;;;;;;0.00;0.00;;;;;;;5.93;64.33;101850.13;15768787;28;20293;-53
2024/01/31 21:41:59;;;;;;;;;;;;;;;5.73;64.48;101857.38;15807710;28;20044;-52
2024/01/31 21:49:32;;;;;;;0.00;0.00;;;;;;;5.81;64.49;101864.63;15803933;28;19926;-55
2024/01/31 21:57:12;;;;;;;0.00;0.00;;;;;;;5.66;64.28;101853.66;15781271;28;20445;-52
2024/01/31 22:04:48;;;;;;;0.10;0.10;;;;;;;5.66;64.32;101832.34;15800064;28;20376;-52
2024/01/31 22:12:24;;;;;;;0.10;0.10;;;;;;;5.44;64.55;101803.47;15763495;28;20040;-51
2024/01/31 22:19:59;;;;;;;0.10;0.10;;;;;;;5.41;64.68;101791.31;15770463;28;20496;-54
2024/01/31 22:27:35;;;;;;;0.60;0.60;;;;;;;5.48;64.88;101787.06;15772712;28;20047;-49
2024/01/31 22:35:10;;;;;;;0.10;0.10;;;;;;;5.41;65.06;101794.00;15776881;28;20101;-51
2024/01/31 22:42:46;;;;;;;0.00;0.00;;;;;;;5.12;65.74;101784.34;15791378;28;20039;-53
2024/01/31 22:50:20;;;;;;;0.10;0.10;;;;;;;5.19;65.40;101775.78;15795866;28;20036;-48
2024/01/31 22:57:57;;;;;;;0.00;0.00;;;;;;;5.29;65.58;101771.22;15781158;28;20443;-49
2024/01/31 23:05:31;;;;;;;0.00;0.00;;;;;;;5.38;64.85;101757.84;15733433;28;20036;-49
2024/01/31 23:13:07;;;;;;;0.00;0.00;;;;;;;5.26;64.77;101740.41;15773944;28;20068;-51
2024/01/31 23:20:41;;;;;;;0.00;0.00;;;;;;;4.79;66.18;101750.34;15775998;28;20109;-48
2024/01/31 23:28:17;;;;;;;0.20;0.20;;;;;;;4.81;66.46;101767.84;15791653;28;20040;-51
2024/01/31 23:35:53;;;;;;;0.00;0.00;;;;;;;4.61;67.37;101750.28;15788641;28;20050;-51
2024/01/31 23:43:29;;;;;;;0.30;0.30;;;;;;;4.92;66.68;101734.88;15787615;28;20067;-49
2024/01/31 23:51:05;;;;;;;0.28;0.28;;;;;;;5.05;65.83;101730.06;15783023;28;20443;-50
2024/01/31 23:58:40;;;;;;;0.00;0.00;;;;;;;4.85;66.63;101723.19;15788961;28;20048;-49
